Time;durP1;ratioP1;P1;durP2;ratioP2;P2;SDS_P1;SDS_P2;PMS_P1;PMS_P2;Temp;Humidity;BMP_temperature;BMP_pressure;BME280_temperature;BME280_humidity;BME280_pressure;Samples;Min_cycle;Max_cycle;Signal;HPM_P1;HPM_P2
2023/05/02 00:00:12;;;;;;;20.67;13.80;;;;;;;10.35;100.00;101785.56;1046188;28;20805;-82
2023/05/02 00:00:44;;;;;;;24.90;14.50;;;;;;;10.36;100.00;101790.69;1044072;28;20788;-82
2023/05/02 00:01:16;;;;;;;23.65;15.00;;;;;;;10.38;100.00;101782.50;1042449;28;20299;-82
2023/05/02 00:01:47;;;;;;;24.65;15.45;;;;;;;10.49;100.00;101790.81;1036870;28;20300;-82
2023/05/02 00:02:19;;;;;;;24.42;15.38;;;;;;;10.54;100.00;101782.25;1036225;28;20303;-82
2023/05/02 00:02:51;;;;;;;24.08;14.70;;;;;;;10.37;100.00;101788.84;1034722;28;20297;-82
2023/05/02 00:03:24;;;;;;;26.13;15.05;;;;;;;10.39;100.00;101784.97;1035444;28;20311;-82
2023/05/02 00:03:56;;;;;;;26.58;15.70;;;;;;;10.38;100.00;101787.84;1038412;28;20283;-82
2023/05/02 00:04:28;;;;;;;23.98;15.43;;;;;;;10.30;100.00;101785.31;1034895;28;20308;-81
2023/05/02 00:05:00;;;;;;;22.58;15.02;;;;;;;10.38;100.00;101783.34;1035128;28;20300;-82
2023/05/02 00:05:31;;;;;;;28.17;15.75;;;;;;;10.45;100.00;101789.56;1042918;28;20685;-82
2023/05/02 00:06:03;;;;;;;25.23;15.00;;;;;;;10.48;100.00;101777.69;1036998;28;20300;-82
2023/05/02 00:06:35;;;;;;;25.77;15.00;;;;;;;10.51;100.00;101777.31;1039378;28;20709;-82
2023/05/02 00:07:06;;;;;;;26.65;16.23;;;;;;;10.42;100.00;101783.81;1037729;28;20363;-82
2023/05/02 00:07:38;;;;;;;23.48;15.30;;;;;;;10.43;100.00;101785.44;1032446;28;20309;-82
2023/05/02 00:08:11;;;;;;;23.83;14.40;;;;;;;10.50;100.00;101786.31;1038372;28;20330;-82
2023/05/02 00:08:42;;;;;;;24.13;14.82;;;;;;;10.57;100.00;101781.84;1037953;28;20312;-82
2023/05/02 00:09:14;;;;;;;22.55;13.63;;;;;;;10.58;100.00;101786.16;1041425;28;20311;-82
2023/05/02 00:09:46;;;;;;;26.75;15.07;;;;;;;10.65;100.00;101779.03;1040127;28;20300;-82
2023/05/02 00:10:18;;;;;;;21.42;13.05;;;;;;;10.61;100.00;101784.97;1042358;28;20300;-82
2023/05/02 00:10:49;;;;;;;25.98;15.02;;;;;;;10.56;100.00;101785.53;1044058;28;20353;-82
2023/05/02 00:11:23;;;;;;;20.77;14.02;;;;;;;10.69;100.00;101791.00;1039499;28;20671;-82
2023/05/02 00:11:54;;;;;;;23.13;15.55;;;;;;;10.61;100.00;101783.13;1040196;28;20329;-82
2023/05/02 00:12:26;;;;;;;23.33;13.88;;;;;;;10.51;100.00;101785.31;1032530;28;20613;-82
2023/05/02 00:12:58;;;;;;;22.15;14.07;;;;;;;10.63;100.00;101791.75;1035673;28;20301;-82
2023/05/02 00:13:29;;;;;;;23.13;13.75;;;;;;;10.72;100.00;101787.94;1039933;28;20299;-82
2023/05/02 00:14:01;;;;;;;26.48;16.42;;;;;;;10.75;100.00;101794.72;1043117;28;20645;-82
2023/05/02 00:14:32;;;;;;;21.52;13.93;;;;;;;10.52;100.00;101784.28;1047801;28;20295;-82
2023/05/02 00:15:05;;;;;;;21.95;14.70;;;;;;;10.43;100.00;101786.28;1048344;28;20392;-81
2023/05/02 00:15:36;;;;;;;22.33;14.32;;;;;;;10.51;100.00;101783.47;1046205;28;20279;-82
2023/05/02 00:16:08;;;;;;;18.58;13.60;;;;;;;10.58;100.00;101793.34;1043989;28;20299;-82
2023/05/02 00:16:40;;;;;;;19.63;13.38;;;;;;;10.59;100.00;101787.81;1042976;28;20299;-82
2023/05/02 00:17:18;;;;;;;21.65;13.95;;;;;;;10.71;100.00;101788.13;1040462;28;20375;-82
2023/05/02 00:17:55;;;;;;;22.73;14.73;;;;;;;10.48;100.00;101788.34;1044265;28;20334;-82
2023/05/02 00:18:26;;;;;;;28.58;14.48;;;;;;;10.40;100.00;101780.47;1041803;28;20310;-82
2023/05/02 00:18:58;;;;;;;25.52;13.65;;;;;;;10.43;100.00;101790.78;1031717;28;20298;-82
2023/05/02 00:19:29;;;;;;;24.30;14.63;;;;;;;10.46;100.00;101787.72;1037044;28;20301;-82
2023/05/02 00:20:03;;;;;;;23.90;13.60;;;;;;;10.53;100.00;101788.59;1039702;28;20355;-82
2023/05/02 00:20:34;;;;;;;25.20;14.45;;;;;;;10.57;100.00;101786.38;1039871;28;20300;-82
2023/05/02 00:21:08;;;;;;;21.23;14.52;;;;;;;10.62;100.00;101791.94;1043413;28;20292;-82
2023/05/02 00:21:40;;;;;;;25.80;14.93;;;;;;;10.60;100.00;101785.97;1042469;28;20373;-82
2023/05/02 00:22:12;;;;;;;22.70;14.07;;;;;;;10.65;100.00;101789.69;1043460;28;20799;-82
2023/05/02 00:22:43;;;;;;;29.25;17.42;;;;;;;10.60;100.00;101791.31;1040031;28;20303;-82
2023/05/02 00:23:15;;;;;;;24.00;14.32;;;;;;;10.63;100.00;101786.41;1042010;28;20288;-82
2023/05/02 00:23:46;;;;;;;20.70;13.93;;;;;;;10.72;100.00;101785.28;1045580;28;20306;-83
2023/05/02 00:24:18;;;;;;;25.65;16.05;;;;;;;10.72;100.00;101784.44;1039625;28;21738;-82
2023/05/02 00:24:52;;;;;;;21.50;14.40;;;;;;;10.60;100.00;101789.47;1040382;28;20300;-82
2023/05/02 00:25:24;;;;;;;21.88;15.68;;;;;;;10.70;100.00;101786.47;1038336;28;20300;-82
2023/05/02 00:25:55;;;;;;;21.58;14.07;;;;;;;10.66;100.00;101783.34;1038868;28;20705;-82
2023/05/02 00:26:27;;;;;;;23.10;15.57;;;;;;;10.72;100.00;101784.44;1036660;28;20307;-82
2023/05/02 00:26:59;;;;;;;20.58;14.55;;;;;;;10.71;100.00;101783.63;1041476;28;20296;-82
2023/05/02 00:27:32;;;;;;;22.35;14.13;;;;;;;10.75;100.00;101786.72;1037873;28;20296;-82
2023/05/02 00:28:03;;;;;;;22.17;13.75;;;;;;;10.68;100.00;101789.34;1044681;28;20291;-82
2023/05/02 00:28:35;;;;;;;22.10;14.63;;;;;;;10.63;100.00;101783.75;1043979;28;20784;-82
2023/05/02 00:29:07;;;;;;;27.23;14.85;;;;;;;10.66;100.00;101780.69;1046027;28;20302;-82
2023/05/02 00:29:47;;;;;;;26.92;14.35;;;;;;;10.60;100.00;101792.13;1045507;28;20326;-82
2023/05/02 00:30:19;;;;;;;22.58;14.40;;;;;;;10.64;100.00;101782.72;1042585;28;20706;-82
2023/05/02 00:30:52;;;;;;;20.05;12.75;;;;;;;10.69;100.00;101780.31;1041399;28;20040;-82
2023/05/02 00:31:24;;;;;;;25.02;13.95;;;;;;;10.77;100.00;101796.16;1029785;28;20309;-82
2023/05/02 00:31:56;;;;;;;18.65;12.48;;;;;;;10.80;100.00;101787.78;1035034;28;20289;-82
2023/05/02 00:32:28;;;;;;;23.60;14.80;;;;;;;10.73;100.00;101791.41;1033735;28;20818;-82
2023/05/02 00:33:00;;;;;;;25.33;13.38;;;;;;;10.78;100.00;101789.81;1034728;28;20795;-82
2023/05/02 00:33:31;;;;;;;22.42;13.30;;;;;;;10.81;100.00;101789.44;1032413;28;20396;-82
2023/05/02 00:34:03;;;;;;;22.52;12.73;;;;;;;10.75;100.00;101792.88;1040262;28;20805;-82
2023/05/02 00:34:35;;;;;;;25.67;14.07;;;;;;;10.75;100.00;101790.22;1043830;28;20349;-82
2023/05/02 00:35:07;;;;;;;22.40;12.85;;;;;;;10.73;100.00;101784.25;1040778;28;20394;-82
2023/05/02 00:35:39;;;;;;;24.27;12.98;;;;;;;10.57;100.00;101791.69;1046121;28;20336;-82
2023/05/02 00:36:18;;;;;;;20.88;12.68;;;;;;;10.49;100.00;101790.00;1043555;28;20317;-82
2023/05/02 00:36:49;;;;;;;23.17;12.48;;;;;;;10.46;100.00;101785.06;1038053;28;20413;-82
2023/05/02 00:37:26;;;;;;;19.10;13.05;;;;;;;10.62;100.00;101787.44;1033713;28;20305;-82
2023/05/02 00:37:58;;;;;;;18.83;11.93;;;;;;;10.75;100.00;101784.06;1033467;28;20312;-82
2023/05/02 00:38:30;;;;;;;24.45;12.05;;;;;;;10.62;100.00;101794.59;1036906;28;20330;-82
2023/05/02 00:39:02;;;;;;;20.15;12.45;;;;;;;10.55;100.00;101791.88;1035999;28;20300;-82
2023/05/02 00:39:34;;;;;;;17.85;11.27;;;;;;;10.36;100.00;101789.88;1032405;28;20780;-82
2023/05/02 00:40:06;;;;;;;18.83;12.18;;;;;;;10.34;100.00;101791.91;1034498;28;20799;-82
2023/05/02 00:40:46;;;;;;;21.15;13.27;;;;;;;10.38;100.00;101793.16;1034069;28;20841;-82
2023/05/02 00:41:18;;;;;;;19.95;11.55;;;;;;;10.35;100.00;101791.72;1030230;28;20528;-81
2023/05/02 00:41:58;;;;;;;20.00;11.57;;;;;;;10.43;100.00;101796.09;1029457;28;20302;-82
2023/05/02 00:42:33;;;;;;;19.13;10.88;;;;;;;10.51;100.00;101798.63;1033002;28;20822;-82
2023/05/02 00:43:05;;;;;;;17.25;11.68;;;;;;;10.58;100.00;101799.50;1033426;28;20039;-82
2023/05/02 00:43:38;;;;;;;17.65;12.30;;;;;;;10.51;100.00;101793.28;1033949;28;20297;-82
2023/05/02 00:44:10;;;;;;;23.05;12.35;;;;;;;10.52;100.00;101800.25;1035121;28;20304;-82
2023/05/02 00:44:42;;;;;;;21.30;13.43;;;;;;;10.58;100.00;101794.16;1033660;28;20874;-82
2023/05/02 00:45:13;;;;;;;19.60;12.30;;;;;;;10.67;100.00;101794.84;1038173;28;20352;-82
2023/05/02 00:45:45;;;;;;;18.02;11.63;;;;;;;10.66;100.00;101788.69;1035577;28;20309;-82
2023/05/02 00:46:17;;;;;;;17.77;11.63;;;;;;;10.70;100.00;101792.63;1035634;28;20383;-82
2023/05/02 00:46:49;;;;;;;21.13;12.85;;;;;;;10.75;100.00;101797.38;1038279;28;20308;-82
2023/05/02 00:47:21;;;;;;;19.02;12.48;;;;;;;10.74;100.00;101793.88;1037663;28;20867;-82
2023/05/02 00:47:52;;;;;;;19.55;13.38;;;;;;;10.55;100.00;101799.88;1039687;28;20307;-82
2023/05/02 00:48:25;;;;;;;18.85;12.40;;;;;;;10.52;100.00;101794.94;1037578;28;20304;-82
2023/05/02 00:48:56;;;;;;;22.00;11.73;;;;;;;10.45;100.00;101794.06;1029825;28;20305;-82
2023/05/02 00:49:29;;;;;;;19.83;12.45;;;;;;;10.52;100.00;101787.78;1032231;28;20668;-82
2023/05/02 00:50:01;;;;;;;16.50;12.45;;;;;;;10.46;100.00;101788.53;1037307;28;20305;-82
2023/05/02 00:50:35;;;;;;;29.02;13.55;;;;;;;10.54;100.00;101795.56;1037055;28;20304;-82
2023/05/02 00:51:11;;;;;;;18.02;12.43;;;;;;;10.60;100.00;101792.13;1036448;28;20296;-82
2023/05/02 00:51:43;;;;;;;20.08;12.18;;;;;;;10.65;100.00;101794.22;1039768;28;20307;-82
2023/05/02 00:52:15;;;;;;;17.63;10.90;;;;;;;10.64;100.00;101793.38;1031244;28;20294;-82
2023/05/02 00:52:47;;;;;;;23.05;13.20;;;;;;;10.49;100.00;101790.81;1037438;28;20320;-82
2023/05/02 00:53:19;;;;;;;20.73;12.52;;;;;;;10.65;100.00;101799.53;1039217;28;20311;-82
2023/05/02 00:53:51;;;;;;;16.42;10.50;;;;;;;10.72;100.00;101801.25;1039312;28;20305;-83
2023/05/02 00:54:22;;;;;;;16.40;10.82;;;;;;;10.74;100.00;101793.06;1038332;28;20298;-83
2023/05/02 00:54:54;;;;;;;17.35;11.25;;;;;;;10.65;100.00;101792.38;1038808;28;20308;-82
2023/05/02 00:55:26;;;;;;;22.70;12.20;;;;;;;10.52;100.00;101794.94;1030511;28;20401;-82
2023/05/02 00:55:58;;;;;;;16.25;11.80;;;;;;;10.68;100.00;101784.00;1036136;28;20315;-83
2023/05/02 00:56:30;;;;;;;15.70;10.75;;;;;;;10.68;100.00;101792.00;1028686;28;20310;-82
2023/05/02 00:57:02;;;;;;;18.73;12.60;;;;;;;10.66;100.00;101796.69;1027092;28;20310;-82
2023/05/02 00:57:33;;;;;;;20.35;11.32;;;;;;;10.63;100.00;101797.06;1034130;28;20293;-82
2023/05/02 00:58:10;;;;;;;20.70;11.68;;;;;;;10.74;100.00;101801.88;1031854;28;20308;-82
2023/05/02 00:58:42;;;;;;;19.45;12.73;;;;;;;10.71;100.00;101793.47;1028694;28;20432;-82
2023/05/02 00:59:14;;;;;;;17.92;11.52;;;;;;;10.81;100.00;101793.94;1032312;28;20379;-82
2023/05/02 00:59:46;;;;;;;17.73;11.93;;;;;;;10.79;100.00;101795.97;1032973;28;20306;-82
2023/05/02 01:00:18;;;;;;;16.27;11.85;;;;;;;10.71;100.00;101799.63;1029332;28;20305;-82
2023/05/02 01:01:01;;;;;;;18.13;11.77;;;;;;;10.68;100.00;101801.81;1029852;28;20313;-82
2023/05/02 01:02:01;;;;;;;17.35;10.85;;;;;;;10.55;100.00;101794.56;1037549;28;20291;-82
2023/05/02 01:02:44;;;;;;;17.98;11.95;;;;;;;10.59;100.00;101798.47;1043796;28;20303;-82
2023/05/02 01:04:03;;;;;;;19.77;11.20;;;;;;;10.70;100.00;101795.31;1040244;28;20299;-82
2023/05/02 01:05:12;;;;;;;14.32;10.45;;;;;;;10.68;100.00;101800.00;1035288;28;20300;-82
2023/05/02 01:06:10;;;;;;;17.15;10.75;;;;;;;10.35;100.00;101798.88;1039661;28;20308;-82
2023/05/02 01:06:45;;;;;;;21.00;10.75;;;;;;;10.33;100.00;101800.91;1045747;28;20305;-82
2023/05/02 01:07:25;;;;;;;16.60;9.80;;;;;;;10.28;100.00;101798.00;1043006;28;20816;-82
2023/05/02 01:08:07;;;;;;;18.17;11.18;;;;;;;10.15;100.00;101806.66;1042004;28;20384;-82
2023/05/02 01:08:49;;;;;;;16.02;9.73;;;;;;;10.13;100.00;101803.34;1035648;28;20046;-82
2023/05/02 01:09:34;;;;;;;;;;;;;;;10.26;100.00;101800.03;1031999;28;20297;-82
2023/05/02 01:10:44;;;;;;;15.05;8.80;;;;;;;10.44;100.00;101803.06;1035602;28;19997;-82
2023/05/02 01:11:24;;;;;;;18.45;10.85;;;;;;;10.41;100.00;101798.13;1034351;28;20463;-82
2023/05/02 01:12:15;;;;;;;16.27;10.23;;;;;;;10.30;100.00;101806.63;1028527;28;20865;-82
2023/05/02 01:12:58;;;;;;;14.52;10.05;;;;;;;10.32;100.00;101804.59;1035022;28;20308;-82
2023/05/02 01:13:34;;;;;;;18.33;10.82;;;;;;;10.45;100.00;101802.88;1035056;28;20137;-83
2023/05/02 01:14:07;;;;;;;21.65;11.57;;;;;;;10.37;100.00;101812.81;1035628;28;20374;-82
2023/05/02 01:14:41;;;;;;;19.08;10.07;;;;;;;10.19;100.00;101806.09;1040552;28;20631;-82
2023/05/02 01:15:16;;;;;;;19.35;10.38;;;;;;;10.43;100.00;101802.25;1032909;28;20313;-82
2023/05/02 01:15:50;;;;;;;16.30;10.35;;;;;;;10.44;100.00;101806.56;1031523;28;20691;-82
2023/05/02 01:16:22;;;;;;;14.68;9.02;;;;;;;10.51;100.00;101803.94;1027156;28;20779;-82
2023/05/02 01:16:55;;;;;;;16.95;11.23;;;;;;;10.39;100.00;101800.97;1038080;28;20300;-82
2023/05/02 01:17:31;;;;;;;20.77;11.27;;;;;;;10.27;100.00;101801.69;1037853;28;20300;-82
2023/05/02 01:18:04;;;;;;;17.02;11.95;;;;;;;10.29;100.00;101802.31;1037787;28;20860;-82
2023/05/02 01:18:39;;;;;;;15.23;9.40;;;;;;;10.41;100.00;101803.47;1036565;28;20293;-82
2023/05/02 01:19:18;;;;;;;14.65;10.95;;;;;;;10.29;100.00;101799.66;1034971;28;20301;-82
2023/05/02 01:20:12;;;;;;;14.63;8.95;;;;;;;10.39;100.00;101806.28;1039661;28;20666;-83
2023/05/02 01:20:45;;;;;;;19.98;11.60;;;;;;;10.29;100.00;101800.47;1038392;28;20372;-82
2023/05/02 01:21:17;;;;;;;16.13;11.60;;;;;;;10.45;100.00;101807.38;1039828;28;20299;-82
2023/05/02 01:21:50;;;;;;;20.02;11.60;;;;;;;10.57;100.00;101803.16;1040033;28;20300;-82
2023/05/02 01:22:24;;;;;;;16.13;12.68;;;;;;;10.48;100.00;101810.47;1044575;28;20303;-82
2023/05/02 01:23:02;;;;;;;21.85;11.93;;;;;;;10.38;100.00;101809.97;1041949;28;20716;-82
2023/05/02 01:24:00;;;;;;;17.88;10.93;;;;;;;10.27;100.00;101812.31;1042343;28;20813;-82
2023/05/02 01:24:39;;;;;;;16.30;10.70;;;;;;;10.20;100.00;101810.44;1046829;28;20294;-82
2023/05/02 01:25:17;;;;;;;18.30;11.23;;;;;;;10.17;100.00;101802.78;1043517;28;20306;-82
2023/05/02 01:25:59;;;;;;;14.73;11.40;;;;;;;10.16;100.00;101811.78;1047150;28;20299;-82
2023/05/02 01:26:48;;;;;;;18.23;11.02;;;;;;;10.15;100.00;101810.16;1034242;28;20894;-82
2023/05/02 01:27:26;;;;;;;19.23;10.95;;;;;;;10.10;100.00;101801.88;1038375;28;20787;-82
2023/05/02 01:28:37;;;;;;;17.35;11.85;;;;;;;10.33;100.00;101806.22;1035581;28;20304;-82
2023/05/02 01:29:10;;;;;;;17.60;10.00;;;;;;;10.39;100.00;101810.78;1041023;28;20796;-82
2023/05/02 01:29:42;;;;;;;19.60;10.98;;;;;;;10.50;100.00;101802.31;1041443;28;20438;-82
2023/05/02 01:30:15;;;;;;;18.73;11.80;;;;;;;10.29;100.00;101805.78;1043571;28;20303;-82
2023/05/02 01:30:50;;;;;;;17.10;10.85;;;;;;;10.23;100.00;101803.06;1039238;28;20310;-82
2023/05/02 01:31:24;;;;;;;15.73;11.00;;;;;;;10.27;100.00;101801.69;1031325;28;20788;-82
2023/05/02 01:31:57;;;;;;;18.10;12.10;;;;;;;10.26;100.00;101800.84;1035669;28;20747;-83
2023/05/02 01:32:32;;;;;;;20.85;12.00;;;;;;;10.29;100.00;101810.28;1034583;28;20305;-82
2023/05/02 01:33:04;;;;;;;21.35;11.55;;;;;;;10.41;100.00;101804.28;1034278;28;20309;-82
2023/05/02 01:33:39;;;;;;;16.83;11.45;;;;;;;10.47;100.00;101803.50;1033755;28;20309;-82
2023/05/02 01:34:11;;;;;;;17.63;11.93;;;;;;;10.60;100.00;101802.78;1036461;28;20347;-82
2023/05/02 01:34:44;;;;;;;18.25;12.02;;;;;;;10.58;100.00;101799.50;1038286;28;20306;-82
2023/05/02 01:35:17;;;;;;;18.70;11.50;;;;;;;10.51;100.00;101802.09;1037736;28;20308;-82
2023/05/02 01:35:50;;;;;;;20.48;13.82;;;;;;;10.32;100.00;101800.09;1029586;28;20305;-82
2023/05/02 01:36:25;;;;;;;18.58;11.90;;;;;;;10.51;100.00;101807.44;1029276;28;20363;-82
2023/05/02 01:36:59;;;;;;;17.52;12.68;;;;;;;10.33;100.00;101804.41;1028926;28;20302;-82
2023/05/02 01:37:32;;;;;;;21.48;12.55;;;;;;;10.32;100.00;101801.91;1031521;28;20313;-82
2023/05/02 01:38:04;;;;;;;19.08;12.38;;;;;;;10.24;100.00;101804.72;1029161;28;20700;-82
2023/05/02 01:38:38;;;;;;;21.08;13.38;;;;;;;10.41;100.00;101804.28;1032704;28;20297;-82
2023/05/02 01:39:13;;;;;;;18.60;12.43;;;;;;;10.55;100.00;101810.53;1031524;28;20297;-82
2023/05/02 01:39:45;;;;;;;19.42;11.75;;;;;;;10.53;100.00;101807.25;1029159;28;20297;-82
2023/05/02 01:40:20;;;;;;;19.65;11.93;;;;;;;10.61;100.00;101809.75;1030832;28;20683;-82
2023/05/02 01:40:52;;;;;;;20.65;11.98;;;;;;;10.63;100.00;101806.91;1040642;28;20308;-82
2023/05/02 01:41:26;;;;;;;17.42;12.05;;;;;;;10.53;100.00;101799.25;1036346;28;20304;-82
2023/05/02 01:41:58;;;;;;;19.98;12.43;;;;;;;10.62;100.00;101808.75;1038346;28;20687;-82
2023/05/02 01:42:31;;;;;;;21.15;12.38;;;;;;;10.66;100.00;101807.34;1029847;28;20310;-82
2023/05/02 01:43:04;;;;;;;19.73;11.88;;;;;;;10.63;100.00;101810.38;1030412;28;20309;-82
2023/05/02 01:43:36;;;;;;;21.67;13.02;;;;;;;10.64;100.00;101805.88;1035212;28;20304;-82
2023/05/02 01:44:08;;;;;;;21.58;12.45;;;;;;;10.79;100.00;101807.44;1039901;28;20842;-82
2023/05/02 01:44:41;;;;;;;20.02;13.18;;;;;;;10.64;100.00;101809.38;1033522;28;20688;-82
2023/05/02 01:45:14;;;;;;;17.27;12.15;;;;;;;10.62;100.00;101808.75;1035700;28;20307;-82
2023/05/02 01:45:48;;;;;;;18.15;12.25;;;;;;;10.66;100.00;101812.66;1041591;28;20689;-82
2023/05/02 01:46:20;;;;;;;17.67;11.95;;;;;;;10.61;100.00;101814.25;1033757;28;20392;-82
2023/05/02 01:46:52;;;;;;;16.63;11.63;;;;;;;10.67;100.00;101808.97;1027463;28;20305;-82
2023/05/02 01:47:25;;;;;;;14.15;11.77;;;;;;;10.71;100.00;101815.59;1033631;28;20408;-82
2023/05/02 01:47:57;;;;;;;17.65;11.80;;;;;;;10.61;100.00;101815.09;1037520;28;20292;-82
2023/05/02 01:48:29;;;;;;;22.85;14.23;;;;;;;10.61;100.00;101808.94;1037976;28;20309;-82
2023/05/02 01:49:03;;;;;;;18.73;12.15;;;;;;;10.57;100.00;101813.81;1025512;28;20302;-82
2023/05/02 01:49:36;;;;;;;23.17;12.95;;;;;;;10.54;100.00;101814.22;1029155;28;20308;-82
2023/05/02 01:50:09;;;;;;;20.23;12.90;;;;;;;10.60;100.00;101807.28;1041018;28;20307;-82
2023/05/02 01:50:43;;;;;;;24.23;13.13;;;;;;;10.75;100.00;101814.19;1040409;28;20677;-82
2023/05/02 01:51:17;;;;;;;15.15;12.10;;;;;;;10.76;100.00;101812.34;1039699;28;20292;-82
2023/05/02 01:51:50;;;;;;;19.20;12.25;;;;;;;10.52;100.00;101808.25;1033786;28;20305;-82
2023/05/02 01:52:22;;;;;;;19.27;12.70;;;;;;;10.49;100.00;101808.66;1038929;28;20299;-82
2023/05/02 01:52:55;;;;;;;19.17;12.40;;;;;;;10.46;100.00;101811.69;1033928;28;20323;-82
2023/05/02 01:53:28;;;;;;;18.75;12.15;;;;;;;10.59;100.00;101811.78;1033829;28;20305;-82
2023/05/02 01:54:04;;;;;;;20.67;13.40;;;;;;;10.58;100.00;101812.00;1033352;28;20317;-82
2023/05/02 01:54:36;;;;;;;19.60;14.02;;;;;;;10.74;100.00;101809.88;1027497;28;20301;-82
2023/05/02 01:55:11;;;;;;;21.48;13.70;;;;;;;10.79;100.00;101811.97;1038960;28;20308;-83
2023/05/02 01:55:44;;;;;;;17.50;12.32;;;;;;;10.60;100.00;101808.13;1036660;28;20307;-83
2023/05/02 01:56:18;;;;;;;19.88;13.13;;;;;;;10.55;100.00;101810.53;1034733;28;20309;-82
2023/05/02 01:56:51;;;;;;;20.42;12.63;;;;;;;10.59;100.00;101806.47;1029100;28;20327;-82
2023/05/02 01:57:23;;;;;;;17.10;12.95;;;;;;;10.54;100.00;101806.22;1029290;28;20811;-82
2023/05/02 01:57:55;;;;;;;16.20;12.40;;;;;;;10.58;100.00;101799.50;1030781;28;20312;-82
2023/05/02 01:58:28;;;;;;;24.75;14.32;;;;;;;10.62;100.00;101806.06;1028032;28;20372;-82
2023/05/02 01:59:01;;;;;;;19.75;12.57;;;;;;;10.67;100.00;101808.16;1027563;28;20349;-82
2023/05/02 01:59:34;;;;;;;21.75;14.93;;;;;;;10.70;100.00;101813.94;1030999;28;20301;-83
2023/05/02 02:00:08;;;;;;;19.52;13.13;;;;;;;10.50;100.00;101812.97;1032092;28;20304;-82
2023/05/02 02:00:46;;;;;;;15.13;12.18;;;;;;;10.37;100.00;101818.97;1035196;28;20305;-82
2023/05/02 02:01:18;;;;;;;22.25;13.85;;;;;;;10.26;100.00;101813.34;1035143;28;20050;-83
2023/05/02 02:01:50;;;;;;;21.20;14.00;;;;;;;10.36;100.00;101813.84;1037941;28;20326;-82
2023/05/02 02:02:26;;;;;;;19.23;12.52;;;;;;;10.38;100.00;101811.81;1037500;28;20383;-82
2023/05/02 02:02:58;;;;;;;23.50;13.43;;;;;;;10.29;100.00;101815.63;1035665;28;20315;-82
2023/05/02 02:03:30;;;;;;;27.42;13.05;;;;;;;10.38;100.00;101814.47;1030583;28;20313;-82
2023/05/02 02:04:03;;;;;;;19.17;14.00;;;;;;;10.51;100.00;101819.94;1028819;28;20329;-83
2023/05/02 02:04:36;;;;;;;18.08;12.73;;;;;;;10.58;100.00;101812.81;1029632;28;20297;-83
2023/05/02 02:05:09;;;;;;;27.65;13.98;;;;;;;10.60;100.00;101818.78;1032366;28;20353;-83
2023/05/02 02:05:41;;;;;;;22.85;13.50;;;;;;;10.65;100.00;101815.53;1030314;28;20305;-82
2023/05/02 02:06:14;;;;;;;21.60;13.27;;;;;;;10.56;100.00;101817.50;1036489;28;20432;-82
2023/05/02 02:06:51;;;;;;;27.27;14.23;;;;;;;10.56;100.00;101822.84;1042371;28;20402;-83
2023/05/02 02:07:23;;;;;;;21.50;11.95;;;;;;;10.59;100.00;101817.13;1039249;28;20531;-83
2023/05/02 02:07:54;;;;;;;21.50;12.88;;;;;;;10.68;100.00;101829.31;1029499;28;20305;-83
2023/05/02 02:08:26;;;;;;;26.30;14.45;;;;;;;10.75;100.00;101821.38;1035732;28;20781;-83
2023/05/02 02:08:58;;;;;;;18.92;12.20;;;;;;;10.76;100.00;101828.34;1035647;28;20305;-82
2023/05/02 02:09:30;;;;;;;18.92;12.50;;;;;;;10.70;100.00;101829.94;1040100;28;20296;-82
2023/05/02 02:10:05;;;;;;;22.17;12.82;;;;;;;10.74;100.00;101831.19;1038721;28;20300;-82
2023/05/02 02:10:49;;;;;;;18.48;11.25;;;;;;;10.67;100.00;101832.97;1036899;28;20798;-82
2023/05/02 02:11:35;;;;;;;19.90;10.10;;;;;;;10.69;100.00;101838.94;1029752;28;20342;-82
2023/05/02 02:12:26;;;;;;;14.15;10.05;;;;;;;10.59;100.00;101841.09;1030918;28;20815;-82
2023/05/02 02:13:06;;;;;;;19.38;10.95;;;;;;;10.65;100.00;101836.84;1031059;28;20787;-82
2023/05/02 02:13:43;;;;;;;10.63;8.13;;;;;;;10.45;100.00;101842.84;1031997;28;20042;-82
2023/05/02 02:14:21;;;;;;;21.05;7.82;;;;;;;10.50;100.00;101840.41;1043015;28;20045;-82
2023/05/02 02:14:59;;;;;;;9.75;5.88;;;;;;;10.49;100.00;101841.44;1031889;28;20302;-82
2023/05/02 02:15:33;;;;;;;10.98;5.65;;;;;;;10.52;100.00;101853.53;1038946;28;20367;-82
2023/05/02 02:16:07;;;;;;;10.35;4.78;;;;;;;10.48;100.00;101846.94;1035015;28;20316;-83
2023/05/02 02:16:40;;;;;;;13.57;5.45;;;;;;;10.51;100.00;101851.91;1030292;28;20341;-81
2023/05/02 02:17:29;;;;;;;7.78;4.35;;;;;;;10.39;100.00;101850.75;1025911;28;20320;-81
2023/05/02 02:18:09;;;;;;;10.35;3.92;;;;;;;10.36;100.00;101854.59;1034655;28;20324;-81
2023/05/02 02:18:45;;;;;;;7.47;4.15;;;;;;;10.33;100.00;101859.50;1039444;28;20300;-82
2023/05/02 02:19:17;;;;;;;9.20;5.60;;;;;;;10.37;100.00;101868.75;1039849;28;20042;-82
2023/05/02 02:19:53;;;;;;;11.07;4.85;;;;;;;10.28;100.00;101851.25;1029129;28;20302;-82
2023/05/02 02:20:26;;;;;;;7.30;3.97;;;;;;;10.30;100.00;101859.88;1023466;28;20303;-82
2023/05/02 02:20:58;;;;;;;8.13;4.38;;;;;;;10.26;100.00;101854.09;1038233;28;20311;-82
2023/05/02 02:21:31;;;;;;;11.05;4.82;;;;;;;10.31;100.00;101857.03;1043321;28;20828;-82
2023/05/02 02:22:04;;;;;;;13.00;4.82;;;;;;;10.27;100.00;101865.59;1040242;28;20406;-82
2023/05/02 02:22:38;;;;;;;9.27;5.40;;;;;;;10.26;100.00;101854.09;1026804;28;20824;-82
2023/05/02 02:23:10;;;;;;;9.27;4.32;;;;;;;10.29;100.00;101867.03;1034440;28;20301;-82
2023/05/02 02:23:42;;;;;;;7.40;4.43;;;;;;;10.27;100.00;101857.59;1031919;28;20811;-82
2023/05/02 02:24:16;;;;;;;8.88;4.22;;;;;;;10.27;100.00;101860.25;1041253;28;20681;-82
2023/05/02 02:24:48;;;;;;;14.73;5.43;;;;;;;10.19;100.00;101863.84;1036950;28;20297;-83
2023/05/02 02:25:21;;;;;;;13.88;6.00;;;;;;;10.15;100.00;101863.41;1029978;28;20815;-83
2023/05/02 02:25:53;;;;;;;13.20;4.10;;;;;;;10.12;100.00;101858.41;1028504;28;20306;-82
2023/05/02 02:26:25;;;;;;;10.48;4.88;;;;;;;10.16;100.00;101859.72;1031845;28;20298;-82
2023/05/02 02:26:56;;;;;;;7.00;5.00;;;;;;;10.14;100.00;101860.91;1027248;28;20373;-82
2023/05/02 02:27:28;;;;;;;9.77;5.03;;;;;;;10.17;100.00;101863.19;1030818;28;20305;-82
2023/05/02 02:28:00;;;;;;;11.55;5.20;;;;;;;10.15;100.00;101863.41;1037355;28;20312;-83
2023/05/02 02:28:33;;;;;;;12.32;6.13;;;;;;;10.24;100.00;101865.97;1035226;28;20304;-82
2023/05/02 02:29:04;;;;;;;7.28;5.47;;;;;;;10.28;100.00;101862.72;1031079;28;20305;-82
2023/05/02 02:29:36;;;;;;;11.75;4.68;;;;;;;10.28;100.00;101864.56;1037753;28;20305;-83
2023/05/02 02:30:08;;;;;;;13.25;5.22;;;;;;;10.24;100.00;101865.97;1028075;28;20298;-82
2023/05/02 02:30:41;;;;;;;16.13;4.78;;;;;;;10.23;100.00;101865.13;1035925;28;20308;-82
2023/05/02 02:31:13;;;;;;;13.05;5.55;;;;;;;10.14;100.00;101869.72;1039689;28;20307;-82
2023/05/02 02:31:44;;;;;;;12.45;4.60;;;;;;;10.20;100.00;101855.69;1043734;28;20852;-83
2023/05/02 02:32:16;;;;;;;6.68;4.28;;;;;;;10.26;100.00;101864.75;1043562;28;20295;-83
2023/05/02 02:32:48;;;;;;;14.18;5.03;;;;;;;10.25;100.00;101867.59;1037546;28;20790;-83
2023/05/02 02:33:19;;;;;;;9.70;4.28;;;;;;;10.30;100.00;101865.19;1038570;28;20308;-83
2023/05/02 02:33:51;;;;;;;17.02;6.28;;;;;;;10.20;100.00;101866.34;1035449;28;20834;-83
2023/05/02 02:34:23;;;;;;;10.45;4.25;;;;;;;10.04;100.00;101871.03;1037195;28;20300;-82
2023/05/02 02:34:56;;;;;;;9.65;4.80;;;;;;;10.13;100.00;101864.56;1030407;28;20305;-82
2023/05/02 02:35:32;;;;;;;12.93;4.53;;;;;;;10.25;100.00;101863.09;1032857;28;20313;-83
2023/05/02 02:36:30;;;;;;;9.80;4.63;;;;;;;10.15;100.00;101862.56;1034844;28;20348;-82